createdAt,value
2018-03-22T00:00:11.739Z,0
2018-03-22T00:01:11.498Z,0
2018-03-22T00:02:12.335Z,0
2018-03-22T00:03:12.078Z,0
2018-03-22T00:04:12.295Z,0
2018-03-22T00:05:12.311Z,0
2018-03-22T00:06:12.316Z,0
2018-03-22T00:07:12.359Z,0
2018-03-22T00:08:12.081Z,0
2018-03-22T00:09:12.364Z,0
2018-03-22T00:10:12.356Z,0
2018-03-22T00:11:12.113Z,0
2018-03-22T00:12:12.127Z,0
2018-03-22T00:13:12.391Z,0
2018-03-22T00:14:12.153Z,0
2018-03-22T00:15:12.162Z,0
2018-03-22T00:16:12.179Z,0
2018-03-22T00:17:12.442Z,0
2018-03-22T00:18:12.295Z,0
2018-03-22T00:19:12.462Z,0
2018-03-22T00:20:12.220Z,0
2018-03-22T00:21:12.734Z,0
2018-03-22T00:22:12.740Z,0
2018-03-22T00:23:12.503Z,0
2018-03-22T00:24:12.760Z,0
2018-03-22T00:25:12.009Z,0
2018-03-22T00:26:12.273Z,0
2018-03-22T00:27:12.537Z,0
2018-03-22T00:28:12.800Z,0
2018-03-22T00:29:12.314Z,0
2018-03-22T00:30:12.314Z,0
2018-03-22T00:31:12.649Z,0
2018-03-22T00:32:12.892Z,0
2018-03-22T00:33:12.674Z,0
2018-03-22T00:34:12.351Z,0
2018-03-22T00:35:12.623Z,0
2018-03-22T00:36:12.605Z,0
2018-03-22T00:37:12.619Z,0
2018-03-22T00:38:12.621Z,0
2018-03-22T00:39:12.691Z,0
2018-03-22T00:40:12.899Z,0
2018-03-22T00:41:12.656Z,0
2018-03-22T00:42:12.429Z,0
2018-03-22T00:43:12.741Z,0
2018-03-22T00:44:12.959Z,0
2018-03-22T00:45:12.210Z,0
2018-03-22T00:46:12.473Z,0
2018-03-22T00:47:12.227Z,0
2018-03-22T00:48:12.769Z,0
2018-03-22T00:49:13.017Z,0
2018-03-22T00:50:12.523Z,0
2018-03-22T00:51:12.531Z,0
2018-03-22T00:52:13.036Z,0
2018-03-22T00:53:12.538Z,0
2018-03-22T00:54:12.557Z,0
2018-03-22T00:55:12.847Z,0
2018-03-22T00:56:12.562Z,0
2018-03-22T00:57:12.573Z,0
2018-03-22T00:58:12.886Z,0
2018-03-22T00:59:13.144Z,0
2018-03-22T01:00:12.866Z,0
2018-03-22T01:01:12.718Z,0
2018-03-22T01:02:12.895Z,0
2018-03-22T01:03:12.654Z,0
2018-03-22T01:04:13.232Z,0
2018-03-22T01:05:12.928Z,0
2018-03-22T01:06:13.195Z,0
2018-03-22T01:07:13.206Z,0
2018-03-22T01:08:12.450Z,0
2018-03-22T01:09:12.981Z,0
2018-03-22T01:10:12.988Z,0
2018-03-22T01:11:13.256Z,0
2018-03-22T01:12:12.746Z,0
2018-03-22T01:13:13.068Z,0
2018-03-22T01:14:13.023Z,0
2018-03-22T01:15:13.286Z,0
2018-03-22T01:16:13.044Z,0
2018-03-22T01:17:13.074Z,0
2018-03-22T01:18:13.322Z,0
2018-03-22T01:19:12.822Z,0
2018-03-22T01:20:12.825Z,0
2018-03-22T01:21:13.094Z,0
2018-03-22T01:22:13.106Z,0
2018-03-22T01:23:13.140Z,0
2018-03-22T01:24:12.630Z,0
2018-03-22T01:25:13.439Z,0
2018-03-22T01:26:13.202Z,0
2018-03-22T01:27:13.164Z,0
2018-03-22T01:28:13.472Z,0
2018-03-22T01:29:13.430Z,0
2018-03-22T01:30:12.939Z,0
2018-03-22T01:31:12.710Z,0
2018-03-22T01:32:13.222Z,0
2018-03-22T01:33:12.716Z,0
2018-03-22T01:34:13.496Z,0
2018-03-22T01:35:13.499Z,0
2018-03-22T01:36:13.512Z,0
2018-03-22T01:37:12.754Z,0
2018-03-22T01:38:13.023Z,0
2018-03-22T01:39:13.283Z,0
2018-03-22T01:40:13.041Z,0
2018-03-22T01:41:13.304Z,0
2018-03-22T01:42:13.064Z,0
2018-03-22T01:43:13.126Z,0
2018-03-22T01:44:13.588Z,0
2018-03-22T01:45:13.351Z,0
2018-03-22T01:46:13.629Z,0
2018-03-22T01:47:13.369Z,0
2018-03-22T01:48:13.650Z,0
2018-03-22T01:49:13.393Z,0
2018-03-22T01:50:13.407Z,0
2018-03-22T01:51:13.666Z,0
2018-03-22T01:52:13.418Z,0
2018-03-22T01:53:13.176Z,0
2018-03-22T01:54:13.467Z,0
2018-03-22T01:55:13.444Z,0
2018-03-22T01:56:13.201Z,0
2018-03-22T01:57:13.226Z,0
2018-03-22T01:58:13.737Z,0
2018-03-22T01:59:13.516Z,0
2018-03-22T02:00:13.251Z,0
2018-03-22T02:01:13.804Z,0
2018-03-22T02:02:13.263Z,0
2018-03-22T02:03:13.332Z,0
2018-03-22T02:04:13.034Z,0
2018-03-22T02:05:13.558Z,0
2018-03-22T02:06:13.559Z,0
2018-03-22T02:07:13.574Z,0
2018-03-22T02:08:13.850Z,0
2018-03-22T02:09:13.594Z,0
2018-03-22T02:10:13.721Z,0
2018-03-22T02:11:13.101Z,0
2018-03-22T02:12:13.375Z,0
2018-03-22T02:13:13.944Z,0
2018-03-22T02:14:13.644Z,0
2018-03-22T02:15:13.664Z,0
2018-03-22T02:16:13.927Z,0
2018-03-22T02:17:13.676Z,0
2018-03-22T02:18:13.730Z,0
2018-03-22T02:19:13.951Z,0
2018-03-22T02:20:13.706Z,0
2018-03-22T02:21:13.704Z,0
2018-03-22T02:22:13.474Z,0
2018-03-22T02:23:13.489Z,0
2018-03-22T02:24:13.997Z,0
2018-03-22T02:25:13.506Z,0
2018-03-22T02:26:14.019Z,0
2018-03-22T02:27:14.039Z,0
2018-03-22T02:28:13.839Z,0
2018-03-22T02:29:13.837Z,0
2018-03-22T02:30:14.073Z,0
2018-03-22T02:31:13.843Z,0
2018-03-22T02:32:13.303Z,0
2018-03-22T02:33:14.123Z,0
2018-03-22T02:34:13.581Z,0
2018-03-22T02:35:14.098Z,0
2018-03-22T02:36:13.859Z,0
2018-03-22T02:37:13.873Z,0
2018-03-22T02:38:13.620Z,0
2018-03-22T02:39:13.379Z,0
2018-03-22T02:40:13.638Z,0
2018-03-22T02:41:13.398Z,0
2018-03-22T02:42:13.919Z,0
2018-03-22T02:43:13.677Z,0
2018-03-22T02:44:13.994Z,0
2018-03-22T02:45:14.243Z,0
2018-03-22T02:46:13.965Z,0
2018-03-22T02:47:13.735Z,0
2018-03-22T02:48:14.305Z,0
2018-03-22T02:49:13.727Z,0
2018-03-22T02:50:14.004Z,0
2018-03-22T02:51:14.162Z,0
2018-03-22T02:52:14.344Z,0
2018-03-22T02:53:14.372Z,0
2018-03-22T02:54:14.373Z,0
2018-03-22T02:55:13.819Z,0
2018-03-22T02:56:14.350Z,0
2018-03-22T02:57:13.820Z,0
2018-03-22T02:58:13.838Z,0
2018-03-22T02:59:14.095Z,0
2018-03-22T03:00:14.101Z,0
2018-03-22T03:01:14.388Z,0
2018-03-22T03:02:14.152Z,0
2018-03-22T03:03:13.884Z,0
2018-03-22T03:04:14.414Z,0
2018-03-22T03:05:14.144Z,0
2018-03-22T03:06:14.460Z,0
2018-03-22T03:07:14.177Z,0
2018-03-22T03:08:13.933Z,0
2018-03-22T03:09:13.483Z,0
2018-03-22T03:10:14.199Z,0
2018-03-22T03:11:14.213Z,0
2018-03-22T03:12:14.463Z,0
2018-03-22T03:13:14.484Z,0
2018-03-22T03:14:14.493Z,0
2018-03-22T03:15:14.250Z,0
2018-03-22T03:16:14.252Z,0
2018-03-22T03:17:14.524Z,0
2018-03-22T03:18:14.536Z,0
2018-03-22T03:19:14.033Z,0
2018-03-22T03:20:14.299Z,0
2018-03-22T03:21:14.055Z,0
2018-03-22T03:22:14.577Z,0
2018-03-22T03:23:14.589Z,0
2018-03-22T03:24:14.122Z,0
2018-03-22T03:25:13.834Z,0
2018-03-22T03:26:14.371Z,0
2018-03-22T03:27:14.618Z,0
2018-03-22T03:28:14.126Z,0
2018-03-22T03:29:13.876Z,0
2018-03-22T03:30:13.890Z,0
2018-03-22T03:31:14.437Z,0
2018-03-22T03:32:14.438Z,0
2018-03-22T03:33:14.679Z,0
2018-03-22T03:34:14.180Z,0
2018-03-22T03:35:14.701Z,0
2018-03-22T03:36:14.453Z,0
2018-03-22T03:37:14.206Z,0
2018-03-22T03:38:14.734Z,0
2018-03-22T03:39:14.276Z,0
2018-03-22T03:40:14.752Z,0
2018-03-22T03:41:14.240Z,0
2018-03-22T03:42:14.259Z,0
2018-03-22T03:43:14.268Z,0
2018-03-22T03:44:14.588Z,0
2018-03-22T03:45:14.568Z,0
2018-03-22T03:46:14.050Z,0
2018-03-22T03:47:14.307Z,0
2018-03-22T03:48:14.827Z,0
2018-03-22T03:49:14.580Z,0
2018-03-22T03:50:14.588Z,0
2018-03-22T03:51:14.605Z,0
2018-03-22T03:52:14.347Z,0
2018-03-22T03:53:14.613Z,0
2018-03-22T03:54:14.426Z,0
2018-03-22T03:55:14.384Z,0
2018-03-22T03:56:14.395Z,0
2018-03-22T03:57:14.657Z,0
2018-03-22T03:58:14.662Z,0
2018-03-22T03:59:14.678Z,0
2018-03-22T04:00:14.686Z,0
2018-03-22T04:01:14.184Z,0
2018-03-22T04:02:14.454Z,0
2018-03-22T04:03:14.715Z,0
2018-03-22T04:04:14.211Z,0
2018-03-22T04:05:14.477Z,0
2018-03-22T04:06:14.230Z,0
2018-03-22T04:07:14.769Z,0
2018-03-22T04:08:14.519Z,0
2018-03-22T04:09:14.259Z,0
2018-03-22T04:10:14.790Z,0
2018-03-22T04:11:14.856Z,0
2018-03-22T04:12:14.799Z,0
2018-03-22T04:13:14.561Z,0
2018-03-22T04:14:14.820Z,0
2018-03-22T04:15:15.087Z,0
2018-03-22T04:16:15.097Z,0
2018-03-22T04:17:15.104Z,0
2018-03-22T04:18:14.860Z,0
2018-03-22T04:19:14.867Z,0
2018-03-22T04:20:14.626Z,0
2018-03-22T04:21:14.892Z,0
2018-03-22T04:22:14.648Z,0
2018-03-22T04:23:14.911Z,0
2018-03-22T04:24:14.929Z,0
2018-03-22T04:25:14.922Z,0
2018-03-22T04:26:14.733Z,0
2018-03-22T04:27:14.686Z,0
2018-03-22T04:28:14.698Z,0
2018-03-22T04:29:15.228Z,0
2018-03-22T04:30:15.222Z,0
2018-03-22T04:31:14.779Z,0
2018-03-22T04:32:14.745Z,0
2018-03-22T04:33:15.259Z,0
2018-03-22T04:34:15.008Z,0
2018-03-22T04:35:15.016Z,0
2018-03-22T04:36:14.786Z,0
2018-03-22T04:37:15.041Z,0
2018-03-22T04:38:14.791Z,0
2018-03-22T04:39:15.053Z,0
2018-03-22T04:40:15.068Z,0
2018-03-22T04:41:15.120Z,0
2018-03-22T04:42:15.092Z,0
2018-03-22T04:43:15.105Z,0
2018-03-22T04:44:15.364Z,0
2018-03-22T04:45:15.128Z,0
2018-03-22T04:46:14.969Z,0
2018-03-22T04:47:14.879Z,0
2018-03-22T04:48:15.410Z,0
2018-03-22T04:49:15.151Z,0
2018-03-22T04:50:15.409Z,0
2018-03-22T04:51:15.417Z,0
2018-03-22T04:52:15.184Z,0
2018-03-22T04:53:15.205Z,0
2018-03-22T04:54:14.687Z,0
2018-03-22T04:55:15.464Z,0
2018-03-22T04:56:15.268Z,0
2018-03-22T04:57:15.226Z,0
2018-03-22T04:58:15.241Z,0
2018-03-22T04:59:15.343Z,0
2018-03-22T05:00:15.256Z,0
2018-03-22T05:01:15.011Z,0
2018-03-22T05:02:15.025Z,0
2018-03-22T05:03:15.284Z,0
2018-03-22T05:04:15.305Z,0
2018-03-22T05:05:15.056Z,0
2018-03-22T05:06:15.055Z,0
2018-03-22T05:07:15.592Z,0
2018-03-22T05:08:15.344Z,5
2018-03-22T05:09:15.342Z,5
2018-03-22T05:10:15.608Z,5
2018-03-22T05:11:15.160Z,5
2018-03-22T05:12:15.651Z,5
2018-03-22T05:13:15.644Z,5
2018-03-22T05:14:14.879Z,10
2018-03-22T05:15:15.142Z,10
2018-03-22T05:16:15.155Z,10
2018-03-22T05:17:15.673Z,10
2018-03-22T05:18:15.177Z,10
2018-03-22T05:19:15.437Z,15
2018-03-22T05:20:15.204Z,15
2018-03-22T05:21:14.948Z,15
2018-03-22T05:22:15.226Z,15
2018-03-22T05:23:15.731Z,20
2018-03-22T05:24:15.239Z,20
2018-03-22T05:25:15.251Z,20
2018-03-22T05:26:15.052Z,25
2018-03-22T05:27:15.775Z,25
2018-03-22T05:28:15.536Z,25
2018-03-22T05:29:15.797Z,30
2018-03-22T05:30:15.829Z,30
2018-03-22T05:31:15.301Z,30
2018-03-22T05:32:15.566Z,35
2018-03-22T05:33:15.585Z,35
2018-03-22T05:34:15.581Z,35
2018-03-22T05:35:15.340Z,40
2018-03-22T05:36:15.612Z,40
2018-03-22T05:37:15.890Z,40
2018-03-22T05:38:15.637Z,45
2018-03-22T05:39:15.897Z,45
2018-03-22T05:40:15.392Z,45
2018-03-22T05:41:15.711Z,50
2018-03-22T05:42:15.674Z,50
2018-03-22T05:43:15.938Z,50
2018-03-22T05:44:15.936Z,50
2018-03-22T05:45:15.700Z,55
2018-03-22T05:46:15.711Z,55
2018-03-22T05:47:15.486Z,55
2018-03-22T05:48:15.474Z,55
2018-03-22T05:49:15.228Z,60
2018-03-22T05:50:15.744Z,60
2018-03-22T05:51:15.766Z,65
2018-03-22T05:52:15.759Z,65
2018-03-22T05:53:15.776Z,65
2018-03-22T05:54:15.533Z,70
2018-03-22T05:55:16.052Z,70
2018-03-22T05:56:16.108Z,75
2018-03-22T05:57:15.817Z,75
2018-03-22T05:58:16.076Z,75
2018-03-22T05:59:16.093Z,80
2018-03-22T06:00:16.109Z,80
2018-03-22T06:01:16.114Z,80
2018-03-22T06:02:16.145Z,85
2018-03-22T06:03:15.404Z,85
2018-03-22T06:04:15.909Z,85
2018-03-22T06:05:15.901Z,85
2018-03-22T06:06:15.903Z,85
2018-03-22T06:07:15.919Z,90
2018-03-22T06:08:16.196Z,95
2018-03-22T06:09:15.951Z,95
2018-03-22T06:10:15.686Z,95
2018-03-22T06:11:16.021Z,100
2018-03-22T06:12:16.303Z,100
2018-03-22T06:13:15.980Z,100
2018-03-22T06:14:15.727Z,105
2018-03-22T06:15:16.246Z,105
2018-03-22T06:16:16.274Z,105
2018-03-22T06:17:16.279Z,110
2018-03-22T06:18:16.044Z,110
2018-03-22T06:19:16.048Z,110
2018-03-22T06:20:16.299Z,110
2018-03-22T06:21:15.904Z,115
2018-03-22T06:22:16.319Z,120
2018-03-22T06:23:15.818Z,120
2018-03-22T06:24:16.342Z,125
2018-03-22T06:25:16.109Z,125
2018-03-22T06:26:16.149Z,125
2018-03-22T06:27:16.117Z,130
2018-03-22T06:28:15.617Z,130
2018-03-22T06:29:16.390Z,130
2018-03-22T06:30:16.409Z,130
2018-03-22T06:31:15.908Z,135
2018-03-22T06:32:16.182Z,135
2018-03-22T06:33:16.438Z,140
2018-03-22T06:34:16.446Z,140
2018-03-22T06:35:15.954Z,145
2018-03-22T06:36:16.471Z,145
2018-03-22T06:37:16.222Z,145
2018-03-22T06:38:16.231Z,145
2018-03-22T06:39:16.243Z,145
2018-03-22T06:40:16.317Z,145
2018-03-22T06:41:16.084Z,145
2018-03-22T06:42:16.251Z,150
2018-03-22T06:43:16.744Z,150
2018-03-22T06:44:16.545Z,150
2018-03-22T06:45:16.567Z,150
2018-03-22T06:46:16.068Z,155
2018-03-22T06:47:16.584Z,155
2018-03-22T06:48:16.334Z,160
2018-03-22T06:49:16.350Z,165
2018-03-22T06:50:16.621Z,170
2018-03-22T06:51:16.624Z,175
2018-03-22T06:52:16.375Z,180
2018-03-22T06:53:16.389Z,180
2018-03-22T06:54:16.167Z,185
2018-03-22T06:55:16.156Z,190
2018-03-22T06:56:16.476Z,190
2018-03-22T06:57:16.426Z,190
2018-03-22T06:58:16.444Z,190
2018-03-22T06:59:16.497Z,190
2018-03-22T07:00:15.956Z,195
2018-03-22T07:01:16.729Z,195
2018-03-22T07:02:16.497Z,185
2018-03-22T07:03:16.234Z,185
2018-03-22T07:04:16.763Z,185
2018-03-22T07:05:16.528Z,190
2018-03-22T07:06:16.548Z,185
2018-03-22T07:07:16.539Z,190
2018-03-22T07:08:16.059Z,195
2018-03-22T07:09:16.308Z,200
2018-03-22T07:10:16.573Z,205
2018-03-22T07:11:16.734Z,210
2018-03-22T07:12:16.863Z,215
2018-03-22T07:13:16.865Z,220
2018-03-22T07:14:16.660Z,220
2018-03-22T07:15:16.371Z,225
2018-03-22T07:16:16.987Z,225
2018-03-22T07:17:16.671Z,230
2018-03-22T07:18:16.664Z,230
2018-03-22T07:19:16.672Z,230
2018-03-22T07:20:16.689Z,230
2018-03-22T07:21:16.686Z,225
2018-03-22T07:22:16.955Z,225
2018-03-22T07:23:16.713Z,225
2018-03-22T07:24:16.536Z,230
2018-03-22T07:25:16.490Z,220
2018-03-22T07:26:17.060Z,225
2018-03-22T07:27:17.011Z,225
2018-03-22T07:28:16.776Z,230
2018-03-22T07:29:17.239Z,230
2018-03-22T07:30:16.541Z,230
2018-03-22T07:31:16.564Z,235
2018-03-22T07:32:16.559Z,235
2018-03-22T07:33:17.111Z,240
2018-03-22T07:34:16.845Z,235
2018-03-22T07:35:16.912Z,240
2018-03-22T07:36:17.121Z,240
2018-03-22T07:37:17.133Z,240
2018-03-22T07:38:17.160Z,240
2018-03-22T07:39:16.922Z,240
2018-03-22T07:40:16.915Z,250
2018-03-22T07:41:16.980Z,250
2018-03-22T07:42:16.942Z,250
2018-03-22T07:43:16.948Z,250
2018-03-22T07:44:16.714Z,250
2018-03-22T07:45:17.005Z,245
2018-03-22T07:46:16.746Z,245
2018-03-22T07:47:17.047Z,255
2018-03-22T07:48:16.755Z,270
2018-03-22T07:49:17.019Z,265
2018-03-22T07:50:17.125Z,265
2018-03-22T07:51:16.523Z,270
2018-03-22T07:52:17.040Z,270
2018-03-22T07:53:16.793Z,275
2018-03-22T07:54:16.803Z,270
2018-03-22T07:55:17.084Z,280
2018-03-22T07:56:16.897Z,280
2018-03-22T07:57:17.102Z,285
2018-03-22T07:58:17.111Z,285
2018-03-22T07:59:16.867Z,285
2018-03-22T08:00:17.419Z,290
2018-03-22T08:01:16.924Z,290
2018-03-22T08:02:16.668Z,295
2018-03-22T08:03:17.204Z,295
2018-03-22T08:04:17.228Z,300
2018-03-22T08:05:17.316Z,305
2018-03-22T08:06:17.232Z,305
2018-03-22T08:07:17.245Z,315
2018-03-22T08:08:17.246Z,325
2018-03-22T08:09:17.516Z,320
2018-03-22T08:10:16.764Z,325
2018-03-22T08:11:17.594Z,330
2018-03-22T08:12:17.327Z,330
2018-03-22T08:13:17.320Z,335
2018-03-22T08:14:17.357Z,340
2018-03-22T08:15:17.342Z,340
2018-03-22T08:16:17.621Z,335
2018-03-22T08:17:17.628Z,325
2018-03-22T08:18:17.390Z,325
2018-03-22T08:19:17.399Z,335
2018-03-22T08:20:17.411Z,345
2018-03-22T08:21:17.170Z,350
2018-03-22T08:22:17.437Z,350
2018-03-22T08:23:16.942Z,355
2018-03-22T08:24:17.463Z,360
2018-03-22T08:25:17.480Z,365
2018-03-22T08:26:17.924Z,365
2018-03-22T08:27:17.501Z,355
2018-03-22T08:28:17.533Z,355
2018-03-22T08:29:17.540Z,365
2018-03-22T08:30:17.301Z,370
2018-03-22T08:31:17.307Z,385
2018-03-22T08:32:17.583Z,395
2018-03-22T08:33:17.097Z,400
2018-03-22T08:34:17.863Z,405
2018-03-22T08:35:17.617Z,410
2018-03-22T08:36:17.638Z,410
2018-03-22T08:37:17.391Z,405
2018-03-22T08:38:17.668Z,405
2018-03-22T08:39:17.933Z,400
2018-03-22T08:40:17.184Z,395
2018-03-22T08:41:17.858Z,390
2018-03-22T08:42:17.974Z,385
2018-03-22T08:43:17.739Z,380
2018-03-22T08:44:18.066Z,370
2018-03-22T08:45:17.503Z,375
2018-03-22T08:46:18.069Z,370
2018-03-22T08:47:17.784Z,370
2018-03-22T08:48:17.930Z,375
2018-03-22T08:49:17.816Z,385
2018-03-22T08:50:17.584Z,405
2018-03-22T08:51:18.098Z,410
2018-03-22T08:52:18.120Z,410
2018-03-22T08:53:17.880Z,420
2018-03-22T08:54:17.644Z,420
2018-03-22T08:55:18.161Z,425
2018-03-22T08:56:17.973Z,425
2018-03-22T08:57:17.926Z,430
2018-03-22T08:58:17.409Z,425
2018-03-22T08:59:18.180Z,420
2018-03-22T09:00:18.283Z,420
2018-03-22T09:01:17.984Z,425
2018-03-22T09:02:17.750Z,425
2018-03-22T09:03:18.283Z,420
2018-03-22T09:04:18.035Z,420
2018-03-22T09:05:17.789Z,430
2018-03-22T09:06:18.063Z,445
2018-03-22T09:07:18.337Z,445
2018-03-22T09:08:18.475Z,445
2018-03-22T09:09:18.107Z,450
2018-03-22T09:10:17.884Z,460
2018-03-22T09:11:17.879Z,455
2018-03-22T09:12:18.150Z,455
2018-03-22T09:13:17.659Z,460
2018-03-22T09:14:18.032Z,460
2018-03-22T09:15:18.186Z,455
2018-03-22T09:16:18.224Z,455
2018-03-22T09:17:17.951Z,450
2018-03-22T09:18:18.213Z,440
2018-03-22T09:19:17.985Z,435
2018-03-22T09:20:17.996Z,440
2018-03-22T09:21:18.260Z,425
2018-03-22T09:22:18.272Z,425
2018-03-22T09:23:18.287Z,420
2018-03-22T09:24:18.588Z,410
2018-03-22T09:25:18.368Z,405
2018-03-22T09:26:18.108Z,395
2018-03-22T09:27:18.135Z,405
2018-03-22T09:28:18.389Z,405
2018-03-22T09:29:18.436Z,415
2018-03-22T09:30:18.420Z,415
2018-03-22T09:31:18.487Z,420
2018-03-22T09:32:18.703Z,420
2018-03-22T09:33:18.732Z,425
2018-03-22T09:34:18.740Z,440
2018-03-22T09:35:18.754Z,440
2018-03-22T09:36:18.517Z,445
2018-03-22T09:37:18.293Z,455
2018-03-22T09:38:18.544Z,460
2018-03-22T09:39:18.867Z,470
2018-03-22T09:40:18.587Z,485
2018-03-22T09:41:18.611Z,490
2018-03-22T09:42:18.854Z,515
2018-03-22T09:43:18.626Z,640
2018-03-22T09:44:18.643Z,655
2018-03-22T09:45:18.663Z,630
2018-03-22T09:46:18.720Z,560
2018-03-22T09:47:18.440Z,590
2018-03-22T09:48:18.792Z,700
2018-03-22T09:49:18.723Z,750
2018-03-22T09:50:18.476Z,720
2018-03-22T09:51:18.492Z,785
2018-03-22T09:52:18.815Z,735
2018-03-22T09:53:18.540Z,720
2018-03-22T09:54:18.800Z,720
2018-03-22T09:55:18.813Z,830
2018-03-22T09:56:18.830Z,880
2018-03-22T09:57:19.113Z,770
2018-03-22T09:58:18.874Z,845
2018-03-22T09:59:18.644Z,850
2018-03-22T10:00:19.148Z,845
2018-03-22T10:01:18.456Z,835
2018-03-22T10:02:18.940Z,910
2018-03-22T10:03:18.716Z,910
2018-03-22T10:04:19.210Z,915
2018-03-22T10:05:18.991Z,875
2018-03-22T10:06:19.245Z,815
2018-03-22T10:07:19.274Z,860
2018-03-22T10:08:18.799Z,950
2018-03-22T10:09:19.070Z,925
2018-03-22T10:10:18.823Z,1335
2018-03-22T10:11:18.924Z,1205
2018-03-22T10:12:18.879Z,1155
2018-03-22T10:13:19.401Z,1220
2018-03-22T10:14:19.184Z,1310
2018-03-22T10:15:19.447Z,1275
2018-03-22T10:16:19.261Z,1195
2018-03-22T10:17:19.222Z,1185
2018-03-22T10:18:19.509Z,1170
2018-03-22T10:19:19.519Z,1140
2018-03-22T10:20:19.503Z,1080
2018-03-22T10:21:19.524Z,1040
2018-03-22T10:22:19.049Z,1010
2018-03-22T10:23:19.350Z,980
2018-03-22T10:24:19.355Z,1015
2018-03-22T10:25:19.350Z,965
2018-03-22T10:26:19.440Z,1015
2018-03-22T10:27:18.935Z,970
2018-03-22T10:28:19.718Z,915
2018-03-22T10:29:19.737Z,975
2018-03-22T10:30:19.503Z,990
2018-03-22T10:31:19.536Z,960
2018-03-22T10:32:19.551Z,960
2018-03-22T10:33:19.567Z,940
2018-03-22T10:34:19.343Z,900
2018-03-22T10:35:19.624Z,840
2018-03-22T10:36:19.392Z,730
2018-03-22T10:37:19.405Z,685
2018-03-22T10:38:19.691Z,715
2018-03-22T10:39:19.713Z,705
2018-03-22T10:40:19.233Z,680
2018-03-22T10:41:20.058Z,640
2018-03-22T10:42:19.518Z,630
2018-03-22T10:43:19.797Z,660
2018-03-22T10:44:19.555Z,695
2018-03-22T10:45:20.098Z,730
2018-03-22T10:46:20.132Z,725
2018-03-22T10:47:20.132Z,735
2018-03-22T10:48:20.162Z,780
2018-03-22T10:49:20.201Z,840
2018-03-22T10:50:20.213Z,945
2018-03-22T10:51:19.718Z,1035
2018-03-22T10:52:19.737Z,1070
2018-03-22T10:53:20.023Z,1075
2018-03-22T10:54:20.307Z,1115
2018-03-22T10:55:20.056Z,1055
2018-03-22T10:56:19.874Z,920
2018-03-22T10:57:20.106Z,1105
2018-03-22T10:58:20.204Z,730
2018-03-22T10:59:19.897Z,845
2018-03-22T11:00:20.195Z,885
2018-03-22T11:01:20.464Z,1030
2018-03-22T11:02:20.226Z,1010
2018-03-22T11:03:20.547Z,1025
2018-03-22T11:04:20.271Z,990
2018-03-22T11:05:20.050Z,1005
2018-03-22T11:06:20.572Z,1045
2018-03-22T11:07:20.340Z,1045
2018-03-22T11:08:20.627Z,1040
2018-03-22T11:09:20.390Z,965
2018-03-22T11:10:20.668Z,885
2018-03-22T11:11:20.233Z,885
2018-03-22T11:12:20.230Z,810
2018-03-22T11:13:20.233Z,770
2018-03-22T11:14:20.519Z,735
2018-03-22T11:15:20.796Z,695
2018-03-22T11:16:20.665Z,660
2018-03-22T11:17:20.606Z,630
2018-03-22T11:18:20.692Z,605
2018-03-22T11:19:20.889Z,590
2018-03-22T11:20:20.915Z,570
2018-03-22T11:21:20.432Z,550
2018-03-22T11:22:20.709Z,525
2018-03-22T11:23:20.728Z,500
2018-03-22T11:24:20.752Z,475
2018-03-22T11:25:20.766Z,465
2018-03-22T11:26:20.861Z,455
2018-03-22T11:27:21.088Z,445
2018-03-22T11:28:21.108Z,445
2018-03-22T11:29:21.107Z,450
2018-03-22T11:30:20.619Z,460
2018-03-22T11:31:21.143Z,480
2018-03-22T11:32:20.915Z,510
2018-03-22T11:33:20.931Z,540
2018-03-22T11:34:20.957Z,570
2018-03-22T11:35:20.728Z,615
2018-03-22T11:36:20.845Z,695
2018-03-22T11:37:21.030Z,735
2018-03-22T11:38:20.791Z,715
2018-03-22T11:39:20.805Z,720
2018-03-22T11:40:21.357Z,790
2018-03-22T11:41:21.239Z,890
2018-03-22T11:42:20.857Z,1055
2018-03-22T11:43:20.878Z,1285
2018-03-22T11:44:21.155Z,1375
2018-03-22T11:45:21.189Z,1420
2018-03-22T11:46:20.994Z,1350
2018-03-22T11:47:20.966Z,1270
2018-03-22T11:48:21.238Z,1380
2018-03-22T11:49:21.008Z,1325
2018-03-22T11:50:21.036Z,1210
2018-03-22T11:51:21.299Z,1375
2018-03-22T11:52:21.326Z,1915
2018-03-22T11:53:21.619Z,1880
2018-03-22T11:54:21.363Z,1790
2018-03-22T11:55:21.394Z,1255
2018-03-22T11:56:21.464Z,930
2018-03-22T11:57:21.181Z,1115
2018-03-22T11:58:21.182Z,1630
2018-03-22T11:59:21.743Z,1810
2018-03-22T12:00:21.259Z,1750
2018-03-22T12:01:21.530Z,1825
2018-03-22T12:02:21.814Z,2115
2018-03-22T12:03:21.887Z,1370
2018-03-22T12:04:21.872Z,1015
2018-03-22T12:05:21.422Z,995
2018-03-22T12:06:21.401Z,780
2018-03-22T12:07:22.137Z,815
2018-03-22T12:08:21.447Z,765
2018-03-22T12:09:21.988Z,665
2018-03-22T12:10:21.504Z,650
2018-03-22T12:11:21.584Z,600
2018-03-22T12:12:21.283Z,570
2018-03-22T12:13:22.082Z,645
2018-03-22T12:14:21.832Z,740
2018-03-22T12:15:21.877Z,990
2018-03-22T12:16:21.884Z,1095
2018-03-22T12:17:22.162Z,1180
2018-03-22T12:18:21.673Z,1165
2018-03-22T12:19:22.200Z,990
2018-03-22T12:20:21.723Z,835
2018-03-22T12:21:21.758Z,785
2018-03-22T12:22:22.024Z,795
2018-03-22T12:23:21.796Z,845
2018-03-22T12:24:22.063Z,925
2018-03-22T12:25:22.131Z,995
2018-03-22T12:26:22.141Z,985
2018-03-22T12:27:22.596Z,1025
2018-03-22T12:28:22.171Z,970
2018-03-22T12:29:21.691Z,970
2018-03-22T12:30:22.208Z,870
2018-03-22T12:31:22.227Z,795
2018-03-22T12:32:22.552Z,770
2018-03-22T12:33:22.278Z,755
2018-03-22T12:34:22.050Z,725
2018-03-22T12:35:22.063Z,720
2018-03-22T12:36:22.345Z,715
2018-03-22T12:37:22.381Z,680
2018-03-22T12:38:22.653Z,650
2018-03-22T12:39:22.409Z,640
2018-03-22T12:40:22.686Z,625
2018-03-22T12:41:22.227Z,620
2018-03-22T12:42:22.887Z,625
2018-03-22T12:43:22.804Z,600
2018-03-22T12:44:22.269Z,590
2018-03-22T12:45:22.280Z,570
2018-03-22T12:46:22.816Z,565
2018-03-22T12:47:22.331Z,560
2018-03-22T12:48:22.605Z,575
2018-03-22T12:49:22.884Z,560
2018-03-22T12:50:22.745Z,560
2018-03-22T12:51:22.661Z,540
2018-03-22T12:52:22.475Z,535
2018-03-22T12:53:22.445Z,535
2018-03-22T12:54:22.478Z,540
2018-03-22T12:55:22.750Z,555
2018-03-22T12:56:22.773Z,535
2018-03-22T12:57:22.781Z,495
2018-03-22T12:58:22.817Z,470
2018-03-22T12:59:22.839Z,450
2018-03-22T13:00:22.332Z,435
2018-03-22T13:01:22.623Z,425
2018-03-22T13:02:23.145Z,420
2018-03-22T13:03:22.400Z,420
2018-03-22T13:04:23.230Z,425
2018-03-22T13:05:22.996Z,435
2018-03-22T13:06:22.961Z,435
2018-03-22T13:07:23.045Z,430
2018-03-22T13:08:23.001Z,435
2018-03-22T13:09:22.763Z,440
2018-03-22T13:10:23.043Z,440
2018-03-22T13:11:23.058Z,435
2018-03-22T13:12:23.080Z,435
2018-03-22T13:13:23.103Z,425
2018-03-22T13:14:23.371Z,415
2018-03-22T13:15:23.137Z,395
2018-03-22T13:16:22.907Z,380
2018-03-22T13:17:23.425Z,380
2018-03-22T13:18:23.445Z,390
2018-03-22T13:19:23.203Z,405
2018-03-22T13:20:23.238Z,425
2018-03-22T13:21:23.507Z,450
2018-03-22T13:22:22.755Z,485
2018-03-22T13:23:22.829Z,530
2018-03-22T13:24:23.104Z,600
2018-03-22T13:25:23.320Z,650
2018-03-22T13:26:23.599Z,645
2018-03-22T13:27:23.631Z,765
2018-03-22T13:28:23.688Z,1110
2018-03-22T13:29:23.394Z,1025
2018-03-22T13:30:23.162Z,955
2018-03-22T13:31:23.693Z,1060
2018-03-22T13:32:23.202Z,1055
2018-03-22T13:33:23.744Z,1265
2018-03-22T13:34:23.759Z,1315
2018-03-22T13:35:23.262Z,1585
2018-03-22T13:36:23.786Z,1435
2018-03-22T13:37:23.310Z,1560
2018-03-22T13:38:23.830Z,1220
2018-03-22T13:39:23.346Z,2055
2018-03-22T13:40:23.362Z,1450
2018-03-22T13:41:23.646Z,1610
2018-03-22T13:42:23.669Z,1025
2018-03-22T13:43:24.157Z,1255
2018-03-22T13:44:23.960Z,945
2018-03-22T13:45:23.976Z,1060
2018-03-22T13:46:24.015Z,1835
2018-03-22T13:47:24.023Z,1750
2018-03-22T13:48:23.802Z,2175
2018-03-22T13:49:23.934Z,1460
2018-03-22T13:50:23.840Z,1305
2018-03-22T13:51:23.915Z,1425
2018-03-22T13:52:24.139Z,1030
2018-03-22T13:53:24.258Z,945
2018-03-22T13:54:23.929Z,1000
2018-03-22T13:55:23.704Z,900
2018-03-22T13:56:23.997Z,945
2018-03-22T13:57:24.253Z,1065
2018-03-22T13:58:23.560Z,1065
2018-03-22T13:59:24.059Z,1270
2018-03-22T14:00:24.278Z,2495
2018-03-22T14:01:23.844Z,1015
2018-03-22T14:02:24.117Z,980
2018-03-22T14:03:23.896Z,990
2018-03-22T14:04:24.166Z,815
2018-03-22T14:05:24.186Z,720
2018-03-22T14:06:23.953Z,775